Time;durP1;ratioP1;P1;durP2;ratioP2;P2;SDS_P1;SDS_P2;PMS_P1;PMS_P2;Temp;Humidity;BMP_temperature;BMP_pressure;BME280_temperature;BME280_humidity;BME280_pressure;Samples;Min_cycle;Max_cycle;Signal;HPM_P1;HPM_P2
2023/03/20 00:01:23;;;;;;;39.88;19.92;;;;;;;;;;5019714;28;20214;-65
2023/03/20 00:03:50;;;;;;;38.97;21.73;;;;;;;;;;5024118;28;20242;-65
2023/03/20 00:06:21;;;;;;;40.65;20.55;;;;;;;;;;5013247;28;20182;-65
2023/03/20 00:08:48;;;;;;;39.92;20.52;;;;;;;;;;5036807;28;20275;-65
2023/03/20 00:11:27;;;;;;;45.72;21.50;;;;;;;;;;5020724;28;20257;-65
2023/03/20 00:13:55;;;;;;;36.80;19.33;;;;;;;;;;5026658;28;20182;-65
2023/03/20 00:16:22;;;;;;;39.53;19.27;;;;;;;;;;5021130;28;20190;-66
2023/03/20 00:18:48;;;;;;;41.03;18.92;;;;;;;;;;5018520;28;20194;-64
2023/03/20 00:21:17;;;;;;;38.65;18.85;;;;;;;;;;5031541;28;20189;-64
2023/03/20 00:23:43;;;;;;;37.03;18.83;;;;;;;;;;5023620;28;20217;-64
2023/03/20 00:26:13;;;;;;;44.00;19.85;;;;;;;;;;5013908;28;20549;-64
2023/03/20 00:28:43;;;;;;;43.10;19.65;;;;;;;;;;5023266;28;20222;-64
2023/03/20 00:31:24;;;;;;;42.08;19.20;;;;;;;;;;5017894;28;20281;-64
2023/03/20 00:33:50;;;;;;;41.72;20.48;;;;;;;;;;5020511;28;20556;-64
2023/03/20 00:36:15;;;;;;;39.55;19.60;;;;;;;;;;5021344;28;20225;-64
2023/03/20 00:38:40;;;;;;;41.92;20.98;;;;;;;;;;5010231;28;20205;-64
2023/03/20 00:41:36;;;;;;;41.72;20.27;;;;;;;;;;5026926;28;20741;-64
2023/03/20 00:44:22;;;;;;;39.05;20.65;;;;;;;;;;5001393;28;20262;-64
2023/03/20 00:46:50;;;;;;;38.42;18.85;;;;;;;;;;5027694;28;20277;-65
2023/03/20 00:49:17;;;;;;;37.63;17.65;;;;;;;;;;5019880;28;20194;-65
2023/03/20 00:51:43;;;;;;;37.13;17.52;;;;;;;;;;5027750;28;20198;-64
2023/03/20 00:54:13;;;;;;;33.28;16.75;;;;;;;;;;5024700;28;20622;-64
2023/03/20 00:56:48;;;;;;;29.13;14.45;;;;;;;;;;5022782;28;20297;-65
2023/03/20 00:59:18;;;;;;;35.70;16.88;;;;;;;;;;5022095;28;20197;-65
2023/03/20 01:01:45;;;;;;;31.73;15.60;;;;;;;;;;5017452;28;20598;-65
2023/03/20 01:04:13;;;;;;;27.95;14.77;;;;;;;;;;5019415;28;20301;-65
2023/03/20 01:06:39;;;;;;;34.58;16.63;;;;;;;;;;5015393;28;20202;-64
2023/03/20 01:09:04;;;;;;;33.00;16.80;;;;;;;;;;5026615;28;20569;-65
2023/03/20 01:11:30;;;;;;;33.97;16.08;;;;;;;;;;5018902;28;20187;-65
2023/03/20 01:13:56;;;;;;;31.73;15.40;;;;;;;;;;5016692;28;20186;-64
2023/03/20 01:16:24;;;;;;;33.20;17.42;;;;;;;;;;5027057;28;20272;-64
2023/03/20 01:18:50;;;;;;;33.67;16.63;;;;;;;;;;5023470;28;20674;-65
2023/03/20 01:21:17;;;;;;;34.92;16.55;;;;;;;;;;5020317;28;20234;-65
2023/03/20 01:23:43;;;;;;;32.20;16.40;;;;;;;;;;5008877;28;20212;-65
2023/03/20 01:26:21;;;;;;;29.58;16.00;;;;;;;;;;5020616;28;20494;-65
2023/03/20 01:28:48;;;;;;;32.30;15.43;;;;;;;;;;5013902;28;20675;-65
2023/03/20 01:31:15;;;;;;;34.25;16.67;;;;;;;;;;5008841;28;20697;-65
2023/03/20 01:33:41;;;;;;;34.95;17.45;;;;;;;;;;5012091;28;20240;-64
2023/03/20 01:36:10;;;;;;;32.13;15.68;;;;;;;;;;5031107;28;20186;-64
2023/03/20 01:38:37;;;;;;;34.75;16.80;;;;;;;;;;5029670;28;20618;-64
2023/03/20 01:41:06;;;;;;;31.40;16.27;;;;;;;;;;5032493;28;20221;-64
2023/03/20 01:43:33;;;;;;;33.58;17.25;;;;;;;;;;5019189;28;20226;-65
2023/03/20 01:46:12;;;;;;;32.15;15.90;;;;;;;;;;5031383;28;20194;-65
2023/03/20 01:48:50;;;;;;;32.58;17.23;;;;;;;;;;5021910;28;20217;-65
2023/03/20 01:51:22;;;;;;;34.45;17.30;;;;;;;;;;5032772;28;20249;-65
2023/03/20 01:53:53;;;;;;;35.17;16.95;;;;;;;;;;5033771;28;20182;-64
2023/03/20 01:56:19;;;;;;;42.90;17.77;;;;;;;;;;5026870;28;20228;-64
2023/03/20 01:58:54;;;;;;;33.83;16.67;;;;;;;;;;5033232;28;20236;-65
2023/03/20 02:01:20;;;;;;;37.25;17.23;;;;;;;;;;5026802;28;20229;-65
2023/03/20 02:03:48;;;;;;;35.88;17.40;;;;;;;;;;5030432;28;20209;-64
2023/03/20 02:06:14;;;;;;;32.03;15.88;;;;;;;;;;5027095;28;20213;-65
2023/03/20 02:08:45;;;;;;;35.30;15.20;;;;;;;;;;5032345;28;20190;-64
2023/03/20 02:11:11;;;;;;;28.02;15.27;;;;;;;;;;5031308;28;20198;-64
2023/03/20 02:13:38;;;;;;;30.63;15.65;;;;;;;;;;5031147;28;20197;-65
2023/03/20 02:16:12;;;;;;;32.10;15.90;;;;;;;;;;5029389;28;20190;-64
2023/03/20 02:18:41;;;;;;;31.63;15.80;;;;;;;;;;5031168;28;20202;-64
2023/03/20 02:21:45;;;;;;;27.13;15.00;;;;;;;;;;5028083;28;20186;-65
2023/03/20 02:24:22;;;;;;;32.55;15.52;;;;;;;;;;5023022;28;20604;-64
2023/03/20 02:27:32;;;;;;;27.65;14.52;;;;;;;;;;5024335;28;22112;-65
2023/03/20 02:30:11;;;;;;;26.58;13.77;;;;;;;;;;5010211;28;20199;-64
2023/03/20 02:33:05;;;;;;;32.03;14.10;;;;;;;;;;5028965;28;20214;-66
2023/03/20 02:35:52;;;;;;;24.33;13.27;;;;;;;;;;5029939;28;20190;-66
2023/03/20 02:38:23;;;;;;;22.58;12.68;;;;;;;;;;5031087;28;20424;-65
2023/03/20 02:41:24;;;;;;;21.90;11.82;;;;;;;;;;5019153;28;20202;-65
2023/03/20 02:44:15;;;;;;;25.65;11.38;;;;;;;;;;5022836;28;20214;-66
2023/03/20 02:46:59;;;;;;;21.65;11.25;;;;;;;;;;5020063;28;20628;-66
2023/03/20 02:49:33;;;;;;;21.95;11.27;;;;;;;;;;5025352;28;20190;-65
2023/03/20 02:52:04;;;;;;;23.20;10.88;;;;;;;;;;5025241;28;20206;-66
2023/03/20 02:54:52;;;;;;;20.38;10.02;;;;;;;;;;5029178;28;20186;-66
2023/03/20 02:57:38;;;;;;;17.77;10.57;;;;;;;;;;5017266;28;20190;-66
2023/03/20 03:00:32;;;;;;;16.40;10.77;;;;;;;;;;5017183;28;20279;-66
2023/03/20 03:03:10;;;;;;;19.20;10.85;;;;;;;;;;5017537;28;20292;-65
2023/03/20 03:05:41;;;;;;;19.25;10.32;;;;;;;;;;5024498;28;20178;-66
2023/03/20 03:08:12;;;;;;;18.45;10.13;;;;;;;;;;5026679;28;20664;-66
2023/03/20 03:10:43;;;;;;;18.17;11.07;;;;;;;;;;5017192;28;20293;-66
2023/03/20 03:13:14;;;;;;;18.90;10.38;;;;;;;;;;5018237;28;20205;-66
2023/03/20 03:15:46;;;;;;;19.45;10.75;;;;;;;;;;5027876;28;20199;-66
2023/03/20 03:18:18;;;;;;;19.38;10.73;;;;;;;;;;5026126;28;20476;-66
2023/03/20 03:20:45;;;;;;;22.90;10.25;;;;;;;;;;5019203;28;20191;-66
2023/03/20 03:23:28;;;;;;;18.80;10.60;;;;;;;;;;5020801;28;20213;-66
2023/03/20 03:25:56;;;;;;;19.30;10.88;;;;;;;;;;5026169;28;20649;-66
2023/03/20 03:28:26;;;;;;;22.92;10.82;;;;;;;;;;5028697;28;20307;-66
2023/03/20 03:30:54;;;;;;;19.45;11.40;;;;;;;;;;5012361;28;20198;-66
2023/03/20 03:33:27;;;;;;;18.05;11.00;;;;;;;;;;5015853;28;20498;-66
2023/03/20 03:36:11;;;;;;;24.02;12.30;;;;;;;;;;5018935;28;20229;-66
2023/03/20 03:38:43;;;;;;;21.00;12.63;;;;;;;;;;5027765;28;20607;-65
2023/03/20 03:41:28;;;;;;;24.35;13.13;;;;;;;;;;5021910;28;20195;-65
2023/03/20 03:44:06;;;;;;;23.33;12.38;;;;;;;;;;5018464;28;20294;-66
2023/03/20 03:46:44;;;;;;;28.88;14.70;;;;;;;;;;5023380;28;20182;-65
2023/03/20 03:49:15;;;;;;;25.85;14.60;;;;;;;;;;5014743;28;20194;-65
2023/03/20 03:51:43;;;;;;;27.58;14.50;;;;;;;;;;5024406;28;20190;-64
2023/03/20 03:54:21;;;;;;;28.30;14.95;;;;;;;;;;5021206;28;20183;-65
2023/03/20 03:56:49;;;;;;;25.63;15.35;;;;;;;;;;5027400;28;20194;-65
2023/03/20 03:59:25;;;;;;;27.42;15.80;;;;;;;;;;5027295;28;20182;-65
2023/03/20 04:01:51;;;;;;;26.20;16.10;;;;;;;;;;5028351;28;20929;-65
2023/03/20 04:04:19;;;;;;;25.73;15.40;;;;;;;;;;5014736;28;20209;-64
2023/03/20 04:06:45;;;;;;;23.77;15.85;;;;;;;;;;5014901;28;20327;-65
2023/03/20 04:09:10;;;;;;;30.02;15.48;;;;;;;;;;5019858;28;20277;-64
2023/03/20 04:11:35;;;;;;;26.38;14.60;;;;;;;;;;5028517;28;20202;-65
2023/03/20 04:14:01;;;;;;;24.45;14.40;;;;;;;;;;5024595;28;20182;-65
2023/03/20 04:16:26;;;;;;;24.40;13.88;;;;;;;;;;5018848;28;20527;-64
2023/03/20 04:18:52;;;;;;;25.02;14.05;;;;;;;;;;5025011;28;20190;-64
2023/03/20 04:21:18;;;;;;;19.13;12.60;;;;;;;;;;5018373;28;20217;-64
2023/03/20 04:23:44;;;;;;;19.88;12.70;;;;;;;;;;5018166;28;20263;-65
2023/03/20 04:26:10;;;;;;;19.23;12.45;;;;;;;;;;5023169;28;20199;-65
2023/03/20 04:28:35;;;;;;;19.58;11.88;;;;;;;;;;5014133;28;20587;-65
2023/03/20 04:31:02;;;;;;;18.35;11.48;;;;;;;;;;5026062;28;20201;-65
2023/03/20 04:33:28;;;;;;;18.45;11.52;;;;;;;;;;5023262;28;20494;-65
2023/03/20 04:35:54;;;;;;;18.23;12.25;;;;;;;;;;5020035;28;20217;-64
2023/03/20 04:38:20;;;;;;;16.67;11.75;;;;;;;;;;5015726;28;20266;-64
2023/03/20 04:40:46;;;;;;;23.02;13.25;;;;;;;;;;5019307;28;20314;-64
2023/03/20 04:43:13;;;;;;;19.35;13.20;;;;;;;;;;5013095;28;20209;-65
2023/03/20 04:45:38;;;;;;;18.23;12.27;;;;;;;;;;5021397;28;20273;-65
2023/03/20 04:48:04;;;;;;;18.35;12.40;;;;;;;;;;5021767;28;20265;-65
2023/03/20 04:50:30;;;;;;;18.15;12.75;;;;;;;;;;5020952;28;20182;-64
2023/03/20 04:52:55;;;;;;;18.75;12.27;;;;;;;;;;5015082;28;20194;-64
2023/03/20 04:55:21;;;;;;;21.15;12.65;;;;;;;;;;5025834;28;20194;-65
2023/03/20 04:57:47;;;;;;;18.70;12.48;;;;;;;;;;5020986;28;20252;-65
2023/03/20 05:00:13;;;;;;;18.08;11.60;;;;;;;;;;5017224;28;20709;-64
2023/03/20 05:02:39;;;;;;;19.25;11.63;;;;;;;;;;5018672;28;20209;-65
2023/03/20 05:05:05;;;;;;;17.95;11.50;;;;;;;;;;5020205;28;20237;-64
2023/03/20 05:07:31;;;;;;;15.25;10.20;;;;;;;;;;5018903;28;20526;-64
2023/03/20 05:09:57;;;;;;;19.15;10.65;;;;;;;;;;5010770;28;20189;-65
2023/03/20 05:12:22;;;;;;;19.73;10.30;;;;;;;;;;5022279;28;20260;-64
2023/03/20 05:14:47;;;;;;;13.80;9.80;;;;;;;;;;5025778;28;20186;-64
2023/03/20 05:17:13;;;;;;;16.75;9.57;;;;;;;;;;5018811;28;20640;-64
2023/03/20 05:19:38;;;;;;;15.82;8.52;;;;;;;;;;5021737;28;20237;-64
2023/03/20 05:22:04;;;;;;;16.25;8.77;;;;;;;;;;5022947;28;20664;-65
2023/03/20 05:24:30;;;;;;;13.48;8.20;;;;;;;;;;5016835;28;20234;-64
2023/03/20 05:26:55;;;;;;;13.73;8.00;;;;;;;;;;5014034;28;20186;-64
2023/03/20 05:29:21;;;;;;;14.00;7.60;;;;;;;;;;5014714;28;20544;-65
2023/03/20 05:31:46;;;;;;;11.90;7.13;;;;;;;;;;5021997;28;20190;-65
2023/03/20 05:34:12;;;;;;;14.10;6.97;;;;;;;;;;5025196;28;21996;-65
2023/03/20 05:36:37;;;;;;;11.23;6.78;;;;;;;;;;5026124;28;20197;-66
2023/03/20 05:39:02;;;;;;;11.15;6.53;;;;;;;;;;5022280;28;20674;-64
2023/03/20 05:41:28;;;;;;;11.20;6.60;;;;;;;;;;5022650;28;20277;-64
2023/03/20 05:43:53;;;;;;;12.23;6.18;;;;;;;;;;5018737;28;20244;-64
2023/03/20 05:46:19;;;;;;;10.23;5.97;;;;;;;;;;5014207;28;20202;-65
2023/03/20 05:48:44;;;;;;;10.00;6.13;;;;;;;;;;5018006;28;20210;-65
2023/03/20 05:51:10;;;;;;;8.43;4.82;;;;;;;;;;5017454;28;20190;-64
2023/03/20 05:53:35;;;;;;;11.75;5.70;;;;;;;;;;5018657;28;20654;-64
2023/03/20 05:56:00;;;;;;;11.35;5.63;;;;;;;;;;5023031;28;20303;-65
2023/03/20 05:58:26;;;;;;;10.55;5.57;;;;;;;;;;5024932;28;20186;-64
2023/03/20 06:00:51;;;;;;;17.95;6.45;;;;;;;;;;5021623;28;20226;-64
2023/03/20 06:03:17;;;;;;;12.18;5.70;;;;;;;;;;5015602;28;20214;-64
2023/03/20 06:05:43;;;;;;;8.90;5.30;;;;;;;;;;5025150;28;20409;-64
2023/03/20 06:08:08;;;;;;;15.02;6.18;;;;;;;;;;5013766;28;20222;-64
2023/03/20 06:10:34;;;;;;;12.93;6.05;;;;;;;;;;5022065;28;20194;-65
2023/03/20 06:13:00;;;;;;;12.30;5.70;;;;;;;;;;5019755;28;20626;-64
2023/03/20 06:15:27;;;;;;;11.52;6.10;;;;;;;;;;5021166;28;20255;-66
2023/03/20 06:17:53;;;;;;;14.52;6.18;;;;;;;;;;5024072;28;20209;-65
2023/03/20 06:20:18;;;;;;;12.07;6.70;;;;;;;;;;5020203;28;20186;-65
2023/03/20 06:22:45;;;;;;;15.65;6.38;;;;;;;;;;5026448;28;20196;-65
2023/03/20 06:25:10;;;;;;;12.23;6.22;;;;;;;;;;5027775;28;20186;-65
2023/03/20 06:27:36;;;;;;;12.10;6.43;;;;;;;;;;5022297;28;20230;-65
2023/03/20 06:30:01;;;;;;;11.15;6.90;;;;;;;;;;5031477;28;20183;-65
2023/03/20 06:32:26;;;;;;;13.70;7.05;;;;;;;;;;5025006;28;20222;-67
2023/03/20 06:34:52;;;;;;;15.27;6.72;;;;;;;;;;5038547;28;20198;-65
2023/03/20 06:37:18;;;;;;;14.98;7.32;;;;;;;;;;5034264;28;20198;-65
2023/03/20 06:39:44;;;;;;;16.77;8.90;;;;;;;;;;5023808;28;20195;-65
2023/03/20 06:42:09;;;;;;;17.40;8.18;;;;;;;;;;5025886;28;20208;-65
2023/03/20 06:44:34;;;;;;;18.73;8.38;;;;;;;;;;5022672;28;20682;-65
2023/03/20 06:47:00;;;;;;;15.45;8.38;;;;;;;;;;5032769;28;20189;-64
2023/03/20 06:49:26;;;;;;;21.77;10.10;;;;;;;;;;5019769;28;20599;-65
2023/03/20 06:51:52;;;;;;;16.08;8.85;;;;;;;;;;5019690;28;20198;-64
2023/03/20 06:54:18;;;;;;;16.23;8.40;;;;;;;;;;5028731;28;20190;-65
2023/03/20 06:56:43;;;;;;;18.95;9.60;;;;;;;;;;5027271;28;20198;-64
2023/03/20 06:59:08;;;;;;;22.50;9.75;;;;;;;;;;5034679;28;20364;-64
2023/03/20 07:01:34;;;;;;;22.20;9.95;;;;;;;;;;5023519;28;20218;-65
2023/03/20 07:04:00;;;;;;;22.38;9.60;;;;;;;;;;5023328;28;20203;-64
2023/03/20 07:06:26;;;;;;;22.20;11.10;;;;;;;;;;5020115;28;20308;-64
2023/03/20 07:08:51;;;;;;;22.33;10.25;;;;;;;;;;5028036;28;20582;-65
2023/03/20 07:11:17;;;;;;;23.15;10.98;;;;;;;;;;5027394;28;20206;-64
2023/03/20 07:13:43;;;;;;;22.98;10.35;;;;;;;;;;5017513;28;20709;-64
2023/03/20 07:16:08;;;;;;;19.88;9.93;;;;;;;;;;5030303;28;20194;-64
2023/03/20 07:18:34;;;;;;;21.85;10.27;;;;;;;;;;5026618;28;20206;-65
2023/03/20 07:21:02;;;;;;;22.83;10.15;;;;;;;;;;5032304;28;20190;-64
2023/03/20 07:23:33;;;;;;;20.65;9.80;;;;;;;;;;5023357;28;20219;-64
2023/03/20 07:25:58;;;;;;;24.17;10.43;;;;;;;;;;5027770;28;20210;-64
2023/03/20 07:28:24;;;;;;;19.92;9.75;;;;;;;;;;5025064;28;20752;-65
2023/03/20 07:30:50;;;;;;;22.17;10.82;;;;;;;;;;5025291;28;20193;-64
2023/03/20 07:33:15;;;;;;;21.15;10.35;;;;;;;;;;5026682;28;20248;-65
2023/03/20 07:35:40;;;;;;;19.27;9.30;;;;;;;;;;5016656;28;20191;-64
2023/03/20 07:38:06;;;;;;;20.17;9.82;;;;;;;;;;5024063;28;20190;-65
2023/03/20 07:40:32;;;;;;;18.63;9.45;;;;;;;;;;5036664;28;20680;-65
2023/03/20 07:42:57;;;;;;;19.05;9.88;;;;;;;;;;5028996;28;20249;-65
2023/03/20 07:45:23;;;;;;;19.38;9.15;;;;;;;;;;5024327;28;20516;-64
2023/03/20 07:47:48;;;;;;;15.18;8.90;;;;;;;;;;5019125;28;20649;-64
2023/03/20 07:50:14;;;;;;;18.70;8.75;;;;;;;;;;5026480;28;20599;-64
2023/03/20 07:52:40;;;;;;;19.52;8.52;;;;;;;;;;5015312;28;20854;-64
2023/03/20 07:55:06;;;;;;;14.60;8.98;;;;;;;;;;5024063;28;20194;-65
2023/03/20 07:57:32;;;;;;;21.35;8.63;;;;;;;;;;5023658;28;20190;-64
2023/03/20 07:59:57;;;;;;;16.65;8.05;;;;;;;;;;5022791;28;20202;-65
2023/03/20 08:02:22;;;;;;;22.13;9.18;;;;;;;;;;5023852;28;20530;-65
2023/03/20 08:04:48;;;;;;;14.98;7.13;;;;;;;;;;5015598;28;20218;-65
2023/03/20 08:07:13;;;;;;;19.98;8.85;;;;;;;;;;5026681;28;20197;-64
2023/03/20 08:09:39;;;;;;;18.00;7.78;;;;;;;;;;5023784;28;20411;-66
2023/03/20 08:12:05;;;;;;;20.50;8.05;;;;;;;;;;5017008;28;20199;-65
2023/03/20 08:14:30;;;;;;;15.63;8.00;;;;;;;;;;5012526;28;20489;-65
2023/03/20 08:16:56;;;;;;;18.67;7.90;;;;;;;;;;5024974;28;20285;-65
2023/03/20 08:19:22;;;;;;;21.40;8.60;;;;;;;;;;5020512;28;20261;-65
2023/03/20 08:21:48;;;;;;;15.45;7.85;;;;;;;;;;5020513;28;20197;-65
2023/03/20 08:24:14;;;;;;;13.40;7.50;;;;;;;;;;5013742;28;20208;-64
2023/03/20 08:26:39;;;;;;;14.32;7.68;;;;;;;;;;5027258;28;20206;-65
2023/03/20 08:29:05;;;;;;;13.02;7.10;;;;;;;;;;5022817;28;20234;-64
2023/03/20 08:31:30;;;;;;;19.38;7.60;;;;;;;;;;5027239;28;20715;-64
2023/03/20 08:33:56;;;;;;;15.02;7.53;;;;;;;;;;5014418;28;20190;-64
2023/03/20 08:36:22;;;;;;;15.05;7.43;;;;;;;;;;5023626;28;20239;-64
2023/03/20 08:38:48;;;;;;;17.27;7.97;;;;;;;;;;5013665;28;20566;-65
2023/03/20 08:41:14;;;;;;;15.52;7.70;;;;;;;;;;5028231;28;20190;-65
2023/03/20 08:43:40;;;;;;;17.63;7.82;;;;;;;;;;5012066;28;20218;-64
2023/03/20 08:46:05;;;;;;;15.35;7.55;;;;;;;;;;5012118;28;20565;-65
2023/03/20 08:48:31;;;;;;;16.38;7.35;;;;;;;;;;5023081;28;20232;-64
2023/03/20 08:50:56;;;;;;;19.92;8.10;;;;;;;;;;5028619;28;20654;-65
2023/03/20 08:53:22;;;;;;;15.63;6.97;;;;;;;;;;5023430;28;20194;-65
2023/03/20 08:55:48;;;;;;;13.88;6.95;;;;;;;;;;5021062;28;20582;-65
2023/03/20 08:58:14;;;;;;;12.35;6.65;;;;;;;;;;5021235;28;20186;-65
2023/03/20 09:00:40;;;;;;;17.20;7.72;;;;;;;;;;5018736;28;20798;-65
2023/03/20 09:03:06;;;;;;;15.18;7.10;;;;;;;;;;5011109;28;20635;-65
2023/03/20 09:05:31;;;;;;;17.20;7.50;;;;;;;;;;5021873;28;20461;-64
2023/03/20 09:07:57;;;;;;;13.85;7.10;;;;;;;;;;5018556;28;20269;-65
2023/03/20 09:10:22;;;;;;;12.85;7.05;;;;;;;;;;5024769;28;20509;-65
2023/03/20 09:12:47;;;;;;;10.55;6.45;;;;;;;;;;5016752;28;20182;-65
2023/03/20 09:15:13;;;;;;;13.55;7.10;;;;;;;;;;5027989;28;20197;-65
2023/03/20 09:17:38;;;;;;;14.77;7.35;;;;;;;;;;5009402;28;20194;-64
2023/03/20 09:20:05;;;;;;;15.05;7.28;;;;;;;;;;5017945;28;20229;-65
2023/03/20 09:22:30;;;;;;;12.90;7.15;;;;;;;;;;5014155;28;20187;-65
2023/03/20 09:24:56;;;;;;;15.88;7.55;;;;;;;;;;5016987;28;20526;-65
2023/03/20 09:27:21;;;;;;;18.67;7.47;;;;;;;;;;5015572;28;20697;-65
2023/03/20 09:29:46;;;;;;;16.52;7.20;;;;;;;;;;5026180;28;20238;-65
2023/03/20 09:32:13;;;;;;;16.55;7.00;;;;;;;;;;5013350;28;20191;-64
2023/03/20 09:34:39;;;;;;;16.50;7.30;;;;;;;;;;5021878;28;20194;-65
2023/03/20 09:37:05;;;;;;;17.92;6.93;;;;;;;;;;5026515;28;20190;-66
2023/03/20 09:39:30;;;;;;;14.60;7.90;;;;;;;;;;5015567;28;20189;-64
2023/03/20 09:42:01;;;;;;;11.35;6.47;;;;;;;;;;5008203;28;20194;-64
2023/03/20 09:44:51;;;;;;;12.40;6.30;;;;;;;;;;5020015;28;20269;-66
2023/03/20 09:47:37;;;;;;;11.63;5.88;;;;;;;;;;5021444;28;20190;-66
2023/03/20 09:50:24;;;;;;;12.00;6.18;;;;;;;;;;5020264;28;20222;-64
2023/03/20 09:53:22;;;;;;;13.68;5.93;;;;;;;;;;5016384;28;20202;-66
2023/03/20 09:55:49;;;;;;;15.95;6.38;;;;;;;;;;5012979;28;20263;-65
2023/03/20 09:58:23;;;;;;;10.38;5.28;;;;;;;;;;5020920;28;20339;-64
2023/03/20 10:00:49;;;;;;;12.07;5.80;;;;;;;;;;5016849;28;20198;-65
2023/03/20 10:03:40;;;;;;;14.55;6.03;;;;;;;;;;5030964;28;20301;-65
2023/03/20 10:06:12;;;;;;;12.18;5.85;;;;;;;;;;5026246;28;20193;-64
2023/03/20 10:08:38;;;;;;;15.20;6.10;;;;;;;;;;5024965;28;20569;-64
2023/03/20 10:11:16;;;;;;;11.55;5.65;;;;;;;;;;5020276;28;20194;-64
2023/03/20 10:13:52;;;;;;;12.80;6.15;;;;;;;;;;5026718;28;20265;-64
2023/03/20 10:16:50;;;;;;;10.73;5.47;;;;;;;;;;5023867;28;20186;-64
2023/03/20 10:19:26;;;;;;;11.48;5.65;;;;;;;;;;5025590;28;20218;-64
2023/03/20 10:22:28;;;;;;;11.25;5.35;;;;;;;;;;5036924;28;20185;-65
2023/03/20 10:25:07;;;;;;;10.02;4.82;;;;;;;;;;5020346;28;20232;-64
2023/03/20 10:27:45;;;;;;;14.40;6.45;;;;;;;;;;5026165;28;20287;-64
2023/03/20 10:30:37;;;;;;;18.10;5.47;;;;;;;;;;5023604;28;20186;-65
2023/03/20 10:34:03;;;;;;;13.95;5.70;;;;;;;;;;5017417;28;20274;-65
2023/03/20 10:36:54;;;;;;;12.40;4.82;;;;;;;;;;4988389;28;20207;-65
2023/03/20 10:39:41;;;;;;;10.35;5.32;;;;;;;;;;5027457;28;20194;-65
2023/03/20 10:42:16;;;;;;;11.30;5.03;;;;;;;;;;5026361;28;20209;-65
2023/03/20 10:44:46;;;;;;;9.20;4.63;;;;;;;;;;5021267;28;20622;-65
2023/03/20 10:47:17;;;;;;;10.68;5.00;;;;;;;;;;5013052;28;20258;-65
2023/03/20 10:49:48;;;;;;;11.48;5.10;;;;;;;;;;5029923;28;20269;-65
2023/03/20 10:52:18;;;;;;;10.48;4.90;;;;;;;;;;5029726;28;20194;-64
2023/03/20 10:54:48;;;;;;;11.15;4.88;;;;;;;;;;5026378;28;20202;-64
2023/03/20 10:57:30;;;;;;;12.63;5.13;;;;;;;;;;5017971;28;20269;-64
2023/03/20 10:59:57;;;;;;;10.15;4.32;;;;;;;;;;5010639;28;20289;-65
2023/03/20 11:02:27;;;;;;;12.65;5.63;;;;;;;;;;5022969;28;20186;-64
2023/03/20 11:04:52;;;;;;;11.68;4.85;;;;;;;;;;5017223;28;20340;-65
2023/03/20 11:07:31;;;;;;;13.07;4.90;;;;;;;;;;5019505;28;20214;-64
2023/03/20 11:10:03;;;;;;;9.55;5.30;;;;;;;;;;5022656;28;20564;-64
2023/03/20 11:12:32;;;;;;;10.93;4.75;;;;;;;;;;5014479;28;20236;-65
2023/03/20 11:15:02;;;;;;;9.60;4.63;;;;;;;;;;5018656;28;20194;-64
2023/03/20 11:17:28;;;;;;;9.48;4.40;;;;;;;;;;5019419;28;20214;-65
2023/03/20 11:20:02;;;;;;;8.95;4.10;;;;;;;;;;5028202;28;20196;-64
2023/03/20 11:22:28;;;;;;;9.95;4.20;;;;;;;;;;5019970;28;20293;-65
2023/03/20 11:25:03;;;;;;;9.27;3.92;;;;;;;;;;5023663;28;20355;-64
2023/03/20 11:27:30;;;;;;;17.45;4.60;;;;;;;;;;5028970;28;20229;-65
2023/03/20 11:29:57;;;;;;;10.95;4.03;;;;;;;;;;5023122;28;20304;-66
2023/03/20 11:32:39;;;;;;;7.90;3.53;;;;;;;;;;5013169;28;20236;-65
2023/03/20 11:35:10;;;;;;;7.90;3.50;;;;;;;;;;5021026;28;20194;-66
2023/03/20 11:37:43;;;;;;;11.63;3.70;;;;;;;;;;5022254;28;20175;-65
2023/03/20 11:40:11;;;;;;;11.35;4.03;;;;;;;;;;5028908;28;20186;-65
2023/03/20 11:42:36;;;;;;;14.02;3.75;;;;;;;;;;5021011;28;20189;-64
2023/03/20 11:45:15;;;;;;;11.57;3.63;;;;;;;;;;5021691;28;20221;-64
2023/03/20 11:47:41;;;;;;;5.55;2.33;;;;;;;;;;5025001;28;20198;-65
2023/03/20 11:50:25;;;;;;;6.93;2.85;;;;;;;;;;5024649;28;20189;-64
2023/03/20 11:52:52;;;;;;;7.28;2.70;;;;;;;;;;5008603;28;20297;-66
2023/03/20 11:55:32;;;;;;;10.27;2.90;;;;;;;;;;5028574;28;20240;-64
2023/03/20 11:57:59;;;;;;;7.70;2.88;;;;;;;;;;5028608;28;20259;-65
2023/03/20 12:00:40;;;;;;;7.32;2.63;;;;;;;;;;5020876;28;20211;-66
2023/03/20 12:03:38;;;;;;;8.80;2.60;;;;;;;;;;5021222;28;20313;-65
2023/03/20 12:06:19;;;;;;;6.80;3.17;;;;;;;;;;5018545;28;20197;-64
2023/03/20 12:09:09;;;;;;;8.70;3.53;;;;;;;;;;5028546;28;20287;-64
2023/03/20 12:11:45;;;;;;;7.50;3.17;;;;;;;;;;5017582;28;20213;-64
2023/03/20 12:14:21;;;;;;;6.88;2.97;;;;;;;;;;5023709;28;20186;-64
2023/03/20 12:16:50;;;;;;;7.85;3.42;;;;;;;;;;5021996;28;20192;-64
2023/03/20 12:19:21;;;;;;;11.15;3.20;;;;;;;;;;5026236;28;20463;-65
2023/03/20 12:22:00;;;;;;;8.45;3.15;;;;;;;;;;5017765;28;20210;-65
2023/03/20 12:24:37;;;;;;;8.07;3.67;;;;;;;;;;5012927;28;20479;-65
2023/03/20 12:27:12;;;;;;;7.18;3.47;;;;;;;;;;5015984;28;20248;-64
2023/03/20 12:29:49;;;;;;;10.32;4.00;;;;;;;;;;5025915;28;20192;-65
2023/03/20 12:32:23;;;;;;;7.20;3.20;;;;;;;;;;5014578;28;20634;-65
2023/03/20 12:34:53;;;;;;;8.68;3.42;;;;;;;;;;5032730;28;20190;-64
2023/03/20 12:37:19;;;;;;;7.75;3.53;;;;;;;;;;5022803;28;20323;-65
2023/03/20 12:39:58;;;;;;;9.77;3.30;;;;;;;;;;5024127;28;20239;-65
2023/03/20 12:42:31;;;;;;;7.22;3.20;;;;;;;;;;5026590;28;20907;-65
2023/03/20 12:45:05;;;;;;;9.32;3.33;;;;;;;;;;5020936;28;20573;-65
2023/03/20 12:47:38;;;;;;;8.23;3.15;;;;;;;;;;5022487;28;20559;-65
2023/03/20 12:50:22;;;;;;;12.15;4.30;;;;;;;;;;5022436;28;20239;-66
2023/03/20 12:52:58;;;;;;;5.38;3.30;;;;;;;;;;5021923;28;20601;-65
2023/03/20 12:55:37;;;;;;;10.18;3.53;;;;;;;;;;5017770;28;20194;-66
2023/03/20 12:58:22;;;;;;;7.18;3.10;;;;;;;;;;5025192;28;20669;-65
2023/03/20 13:00:56;;;;;;;6.93;3.05;;;;;;;;;;5026900;28;20217;-65
2023/03/20 13:03:27;;;;;;;9.23;3.28;;;;;;;;;;5027738;28;20236;-65
2023/03/20 13:06:08;;;;;;;8.15;3.38;;;;;;;;;;5020605;28;20186;-65
2023/03/20 13:08:55;;;;;;;7.30;3.35;;;;;;;;;;5021795;28;20218;-65
2023/03/20 13:11:28;;;;;;;7.88;3.45;;;;;;;;;;5024556;28;20667;-65
2023/03/20 13:14:23;;;;;;;10.07;3.22;;;;;;;;;;5016445;28;20204;-68
2023/03/20 13:17:04;;;;;;;6.80;3.08;;;;;;;;;;5012589;28;20696;-65
2023/03/20 13:19:48;;;;;;;7.03;3.15;;;;;;;;;;5021686;28;20666;-65
2023/03/20 13:22:37;;;;;;;6.38;3.10;;;;;;;;;;5021827;28;20208;-65
2023/03/20 13:25:27;;;;;;;8.43;3.25;;;;;;;;;;4994764;28;20231;-65
2023/03/20 13:28:11;;;;;;;10.32;3.88;;;;;;;;;;5017298;28;20242;-65
2023/03/20 13:30:46;;;;;;;5.55;2.90;;;;;;;;;;5017555;28;20194;-65
2023/03/20 13:33:37;;;;;;;10.05;2.75;;;;;;;;;;5022766;28;20181;-65
2023/03/20 13:36:34;;;;;;;7.93;2.90;;;;;;;;;;5008460;28;20321;-65
2023/03/20 13:39:11;;;;;;;5.70;3.00;;;;;;;;;;5020003;28;20206;-65
2023/03/20 13:41:37;;;;;;;9.35;3.33;;;;;;;;;;5017532;28;20292;-65
2023/03/20 13:44:05;;;;;;;5.95;2.83;;;;;;;;;;5019882;28;20240;-65
2023/03/20 13:46:45;;;;;;;6.53;2.67;;;;;;;;;;5014623;28;20234;-65
2023/03/20 13:49:21;;;;;;;7.55;3.20;;;;;;;;;;5019135;28;20212;-65
2023/03/20 13:52:02;;;;;;;7.95;2.90;;;;;;;;;;5013477;28;20240;-65
2023/03/20 13:54:45;;;;;;;8.48;3.38;;;;;;;;;;5013319;28;21114;-64
2023/03/20 13:57:45;;;;;;;7.32;3.00;;;;;;;;;;5015835;28;20285;-65
2023/03/20 14:00:33;;;;;;;11.07;3.28;;;;;;;;;;5016206;28;20218;-65
2023/03/20 14:03:18;;;;;;;9.20;3.10;;;;;;;;;;5009174;28;20285;-65
2023/03/20 14:05:46;;;;;;;5.40;2.95;;;;;;;;;;5024479;28;20300;-65
2023/03/20 14:08:26;;;;;;;7.03;3.30;;;;;;;;;;5032522;28;20653;-65
2023/03/20 14:11:09;;;;;;;7.25;3.35;;;;;;;;;;5016908;28;20194;-66
2023/03/20 14:13:35;;;;;;;9.35;3.67;;;;;;;;;;5020872;28;20194;-66
2023/03/20 14:16:09;;;;;;;11.63;4.15;;;;;;;;;;5017889;28;20193;-66
2023/03/20 14:18:35;;;;;;;10.90;3.58;;;;;;;;;;5026879;28;20205;-66
2023/03/20 14:21:03;;;;;;;9.32;3.90;;;;;;;;;;5014781;28;20194;-66
2023/03/20 14:23:38;;;;;;;8.50;3.20;;;;;;;;;;5016475;28;20472;-66
2023/03/20 14:26:38;;;;;;;13.10;3.78;;;;;;;;;;5023357;28;20232;-65
2023/03/20 14:29:09;;;;;;;8.55;3.20;;;;;;;;;;5020427;28;20300;-66
2023/03/20 14:31:37;;;;;;;7.47;3.95;;;;;;;;;;5009098;28;20202;-65
2023/03/20 14:34:11;;;;;;;7.85;3.53;;;;;;;;;;5020357;28;20209;-65
2023/03/20 14:36:59;;;;;;;11.13;3.70;;;;;;;;;;5023093;28;20277;-65
2023/03/20 14:39:39;;;;;;;12.45;4.30;;;;;;;;;;5010810;28;20247;-65
2023/03/20 14:42:16;;;;;;;7.90;3.80;;;;;;;;;;5022085;28;20255;-66
2023/03/20 14:45:17;;;;;;;8.60;4.03;;;;;;;;;;5025616;28;20288;-65
2023/03/20 14:48:05;;;;;;;13.79;5.18;;;;;;;;;;4510400;28;10002860;-66
2023/03/20 14:50:34;;;;;;;10.00;4.13;;;;;;;;;;5022028;28;20289;-65
2023/03/20 14:53:16;;;;;;;14.27;4.90;;;;;;;;;;5017126;28;20190;-65
2023/03/20 14:55:48;;;;;;;13.70;4.78;;;;;;;;;;5020765;28;20974;-65